PAHL

Details ICAO PAHL (HSL)
Name HUSLIA
Region USA (Alaska)
Timezone America/Anchorage (UTC-9.0)
Plans Departing 0
Arriving 1
Stats Elevation 213 ft / 65 m (AMSL)
Location 65.697854° -156.351432°
Runways 1
Magnetic Variation 14.306° E
Sunrise 2017-12-11 20:38:55 UTC / 2017-12-11 11:38:55 Local
Sunset 2017-12-12 00:01:43 UTC / 2017-12-11 15:01:43 Local
Advertisement - Login to hide

Runways

ID Width Length Bearing (true) Bearing (mag) Surface Threshold Offset Overrun Length
03 75 ft / 23 m 3,987 ft / 1,215 m 51.12° 36.81° Gravel 0 ft / 0 m 0 ft / 0 m
21 75 ft / 23 m 3,987 ft / 1,215 m 231.13° 216.82° Gravel 0 ft / 0 m 0 ft / 0 m

Map

Weather


0- 5 10 15 20 25 30 35+ Temperature / ° C

Clouds and Precipitation
Forecast for 2017-12-11 18:00 UTC. Updated 5 minutes ago

Ground ~20,000 ft ~40,000 ft Winds

METAR

PAHL 111656Z AUTO 06007KT 10SM OVC080 M03/M04 A2916 RMK AO2 SLP886 T10331039 FZRANO

TAF

Not found

Frequencies

Recorded 135.75 MHz AWOS 3
Unicom 122.80 MHz CTAF
Warning: Do not use this data for real-world aviation or navigation. No guarantee of current accuracy is given.